createdAt,value
2019-03-28T00:00:10.409Z,0.90
2019-03-28T00:02:40.358Z,1.17
2019-03-28T00:05:09.917Z,1.27
2019-03-28T00:07:39.727Z,1.00
2019-03-28T00:10:09.076Z,0.95
2019-03-28T00:12:38.297Z,1.30
2019-03-28T00:15:08.177Z,1.20
2019-03-28T00:17:37.570Z,1.20
2019-03-28T00:20:07.016Z,1.20
2019-03-28T00:22:37.951Z,1.20
2019-03-28T00:25:08.937Z,0.90
2019-03-28T00:27:38.209Z,0.95
2019-03-28T00:30:10.915Z,1.20
2019-03-28T00:32:40.216Z,1.00
2019-03-28T00:35:09.357Z,0.90
2019-03-28T00:37:40.381Z,1.03
2019-03-28T00:40:10.014Z,1.07
2019-03-28T00:42:39.885Z,1.40
2019-03-28T00:45:09.810Z,1.00
2019-03-28T00:47:39.247Z,1.07
2019-03-28T00:50:09.382Z,0.90
2019-03-28T00:52:39.847Z,1.07
2019-03-28T00:55:10.018Z,0.90
2019-03-28T00:57:40.591Z,1.15
2019-03-28T01:00:10.611Z,1.00
2019-03-28T01:02:41.481Z,1.10
2019-03-28T01:05:14.932Z,1.40
2019-03-28T01:07:45.338Z,1.00
2019-03-28T01:10:15.124Z,1.20
2019-03-28T01:12:44.377Z,1.40
2019-03-28T01:15:13.722Z,1.52
2019-03-28T01:17:43.039Z,1.30
2019-03-28T01:20:12.445Z,1.90
2019-03-28T01:22:42.237Z,2.58
2019-03-28T01:25:11.924Z,2.55
2019-03-28T01:27:43.188Z,2.00
2019-03-28T01:30:13.303Z,2.80
2019-03-28T01:32:43.300Z,2.15
2019-03-28T01:35:12.857Z,1.92
2019-03-28T01:37:42.409Z,2.00
2019-03-28T01:40:12.039Z,4.37
2019-03-28T01:42:41.824Z,2.40
2019-03-28T01:45:11.509Z,2.05
2019-03-28T01:47:41.436Z,2.20
2019-03-28T01:50:10.800Z,2.45
2019-03-28T01:52:42.832Z,4.15
2019-03-28T01:55:12.303Z,2.10
2019-03-28T01:57:41.578Z,2.08
2019-03-28T02:00:13.101Z,2.50
2019-03-28T02:02:43.218Z,2.85
2019-03-28T02:05:13.333Z,2.70
2019-03-28T02:07:43.059Z,2.20
2019-03-28T02:10:13.482Z,3.10
2019-03-28T02:12:42.635Z,2.30
2019-03-28T02:15:11.943Z,2.25
2019-03-28T02:17:41.070Z,2.33
2019-03-28T02:20:10.654Z,1.90
2019-03-28T02:22:39.866Z,3.37
2019-03-28T02:25:09.372Z,2.40
2019-03-28T02:27:38.324Z,3.60
2019-03-28T02:30:08.373Z,2.80
2019-03-28T02:32:37.687Z,3.00
2019-03-28T02:35:07.439Z,3.75
2019-03-28T02:37:36.911Z,3.10
2019-03-28T02:40:07.471Z,4.20
2019-03-28T02:42:36.574Z,5.05
2019-03-28T02:45:07.447Z,3.27
2019-03-28T02:47:36.879Z,5.08
2019-03-28T02:50:06.698Z,4.10
2019-03-28T02:52:35.968Z,4.90
2019-03-28T02:55:06.667Z,4.37
2019-03-28T02:57:41.684Z,6.12
2019-03-28T03:00:10.865Z,5.92
2019-03-28T03:02:41.633Z,4.00
2019-03-28T03:05:10.773Z,4.70
2019-03-28T03:07:39.990Z,5.40
2019-03-28T03:10:09.117Z,4.15
2019-03-28T03:12:38.538Z,5.70
2019-03-28T03:15:08.496Z,5.20
2019-03-28T03:17:37.957Z,4.62
2019-03-28T03:20:07.676Z,3.60
2019-03-28T03:22:37.073Z,2.60
2019-03-28T03:25:09.808Z,3.35
2019-03-28T03:27:56.300Z,3.85
2019-03-28T03:30:10.693Z,3.37
2019-03-28T03:32:40.131Z,3.00
2019-03-28T03:35:09.514Z,2.65
2019-03-28T03:37:38.976Z,2.15
2019-03-28T03:40:09.089Z,3.00
2019-03-28T03:42:38.394Z,1.70
2019-03-28T03:45:09.332Z,2.62
2019-03-28T03:47:39.261Z,1.80
2019-03-28T03:50:10.006Z,1.70
2019-03-28T03:52:39.195Z,1.47
2019-03-28T03:55:08.466Z,1.82
2019-03-28T03:57:38.780Z,1.70
2019-03-28T04:00:08.125Z,1.82
2019-03-28T04:02:37.506Z,1.40
2019-03-28T04:05:07.665Z,1.70
2019-03-28T04:07:36.833Z,1.40
2019-03-28T04:10:06.709Z,1.85
2019-03-28T04:12:36.180Z,2.08
2019-03-28T04:15:06.375Z,1.80
2019-03-28T04:17:35.476Z,2.00
2019-03-28T04:20:07.235Z,1.47
2019-03-28T04:22:37.478Z,1.37
2019-03-28T04:25:06.717Z,1.50
2019-03-28T04:27:35.957Z,1.70
2019-03-28T04:30:06.992Z,1.07
2019-03-28T04:32:36.190Z,1.80
2019-03-28T04:35:07.201Z,1.40
2019-03-28T04:37:36.635Z,1.20
2019-03-28T04:40:07.125Z,1.20
2019-03-28T04:42:36.299Z,1.47
2019-03-28T04:45:05.794Z,1.65
2019-03-28T04:47:34.898Z,1.30
2019-03-28T04:50:04.025Z,1.60
2019-03-28T04:52:33.039Z,1.45
2019-03-28T04:55:02.367Z,1.52
2019-03-28T04:57:32.066Z,1.72
2019-03-28T05:00:01.559Z,1.60
2019-03-28T05:02:31.336Z,2.20
2019-03-28T05:05:00.870Z,1.77
2019-03-28T05:07:30.051Z,1.32
2019-03-28T05:09:59.895Z,1.35
2019-03-28T05:12:29.095Z,1.25
2019-03-28T05:14:58.383Z,1.12
2019-03-28T05:17:28.941Z,1.30
2019-03-28T05:19:58.223Z,1.45
2019-03-28T05:22:27.505Z,3.02
2019-03-28T05:24:56.771Z,2.22
2019-03-28T05:27:26.183Z,2.20
2019-03-28T05:29:55.710Z,1.50
2019-03-28T05:32:24.814Z,1.35
2019-03-28T05:34:54.110Z,1.55
2019-03-28T05:37:23.152Z,1.42
2019-03-28T05:39:52.595Z,1.22
2019-03-28T05:42:22.001Z,1.20
2019-03-28T05:44:50.986Z,1.30
2019-03-28T05:47:22.085Z,1.30
2019-03-28T05:49:51.432Z,1.30
2019-03-28T05:52:20.738Z,1.22
2019-03-28T05:54:49.982Z,1.92
2019-03-28T05:57:19.286Z,2.00
2019-03-28T05:59:48.395Z,2.70
2019-03-28T06:02:17.592Z,6.20
2019-03-28T06:04:47.537Z,14.63
2019-03-28T06:07:16.767Z,11.63
2019-03-28T06:09:46.075Z,5.03
2019-03-28T06:12:15.378Z,4.90
2019-03-28T06:14:44.572Z,3.50
2019-03-28T06:17:13.696Z,4.62
2019-03-28T06:19:43.652Z,3.70
2019-03-28T06:22:13.497Z,4.83
2019-03-28T06:24:43.233Z,5.37
2019-03-28T06:27:12.569Z,17.00
2019-03-28T06:29:42.591Z,13.20
2019-03-28T06:32:11.874Z,6.15
2019-03-28T06:34:41.144Z,7.62
2019-03-28T06:37:10.628Z,7.30
2019-03-28T06:39:40.019Z,9.60
2019-03-28T06:42:09.255Z,8.55
2019-03-28T06:44:40.501Z,11.70
2019-03-28T06:47:09.627Z,9.10
2019-03-28T06:49:39.194Z,7.92
2019-03-28T06:52:08.603Z,8.35
2019-03-28T06:54:38.445Z,8.35
2019-03-28T06:57:07.534Z,8.00
2019-03-28T06:59:37.845Z,8.25
2019-03-28T07:02:08.524Z,7.95
2019-03-28T07:04:37.995Z,7.60
2019-03-28T07:07:06.958Z,6.92
2019-03-28T07:09:36.070Z,6.22
2019-03-28T07:12:05.348Z,7.00
2019-03-28T07:14:34.631Z,7.80
2019-03-28T07:17:04.115Z,4.28
2019-03-28T07:19:33.370Z,5.80
2019-03-28T07:22:02.655Z,7.33
2019-03-28T07:24:33.160Z,6.17
2019-03-28T07:27:02.725Z,7.08
2019-03-28T07:29:33.097Z,6.20
2019-03-28T07:32:02.389Z,6.95
2019-03-28T07:34:31.971Z,6.30
2019-03-28T07:37:01.209Z,4.50
2019-03-28T07:39:30.529Z,5.75
2019-03-28T07:42:00.091Z,5.58
2019-03-28T07:44:29.087Z,7.05
2019-03-28T07:46:58.607Z,5.55
2019-03-28T07:49:28.088Z,7.62
2019-03-28T07:51:57.781Z,8.48
2019-03-28T07:54:27.131Z,15.63
2019-03-28T07:56:56.549Z,65.85
2019-03-28T07:59:25.742Z,45.05
2019-03-28T08:01:54.926Z,34.03
2019-03-28T08:04:24.673Z,25.15
2019-03-28T08:06:54.010Z,15.63
2019-03-28T08:09:35.737Z,17.70
2019-03-28T08:11:54.323Z,39.20
2019-03-28T08:14:23.459Z,55.98
2019-03-28T08:16:52.651Z,41.05
2019-03-28T08:19:22.175Z,41.20
2019-03-28T08:21:51.530Z,56.85
2019-03-28T08:24:21.031Z,55.10
2019-03-28T08:26:50.309Z,57.65
2019-03-28T08:29:19.323Z,22.35
2019-03-28T08:31:49.949Z,19.67
2019-03-28T08:34:19.175Z,23.55
2019-03-28T08:36:48.468Z,17.95
2019-03-28T08:39:18.878Z,12.75
2019-03-28T08:41:48.843Z,17.48
2019-03-28T08:44:18.644Z,15.60
2019-03-28T08:46:48.131Z,15.30
2019-03-28T08:49:17.720Z,16.00
2019-03-28T08:51:47.182Z,14.40
2019-03-28T08:54:16.551Z,11.85
2019-03-28T08:56:45.994Z,12.53
2019-03-28T08:59:15.565Z,14.28
2019-03-28T09:01:45.113Z,14.05
2019-03-28T09:04:15.965Z,13.30
2019-03-28T09:06:45.840Z,8.28
2019-03-28T09:09:15.265Z,10.05
2019-03-28T09:11:44.637Z,12.13
2019-03-28T09:14:14.190Z,8.30
2019-03-28T09:16:43.542Z,6.87
2019-03-28T09:19:13.369Z,6.78
2019-03-28T09:21:42.547Z,7.12
2019-03-28T09:24:11.829Z,6.05
2019-03-28T09:26:41.051Z,6.33
2019-03-28T09:29:10.216Z,7.58
2019-03-28T09:31:39.602Z,14.60
2019-03-28T09:34:08.838Z,11.03
2019-03-28T09:36:38.150Z,15.32
2019-03-28T09:39:08.922Z,14.15
2019-03-28T09:41:38.229Z,24.85
2019-03-28T09:44:07.466Z,19.23
2019-03-28T09:46:36.670Z,6.62
2019-03-28T09:49:07.329Z,7.87
2019-03-28T09:51:36.809Z,6.83
2019-03-28T09:54:07.074Z,8.30
2019-03-28T09:56:36.462Z,11.70
2019-03-28T09:59:05.606Z,7.42
2019-03-28T10:01:35.146Z,5.85
2019-03-28T10:04:06.472Z,6.95
2019-03-28T10:06:36.132Z,6.05
2019-03-28T10:09:06.600Z,5.90
2019-03-28T10:11:35.905Z,6.67
2019-03-28T10:14:07.895Z,6.33
2019-03-28T10:16:36.677Z,5.58
2019-03-28T10:19:05.908Z,6.78
2019-03-28T10:21:37.515Z,7.30
2019-03-28T10:24:06.346Z,5.90
2019-03-28T10:26:35.573Z,7.00
2019-03-28T10:29:04.563Z,6.28
2019-03-28T10:31:35.237Z,8.53
2019-03-28T10:34:04.572Z,7.60
2019-03-28T10:36:34.752Z,9.35
2019-03-28T10:39:05.366Z,7.87
2019-03-28T10:41:34.778Z,9.75
2019-03-28T10:44:04.201Z,9.43
2019-03-28T10:46:33.573Z,8.45
2019-03-28T10:49:02.747Z,9.73
2019-03-28T10:51:32.053Z,7.37
2019-03-28T10:54:01.256Z,9.05
2019-03-28T10:56:30.674Z,11.08
2019-03-28T10:58:59.969Z,12.05
2019-03-28T11:01:46.961Z,9.73
2019-03-28T11:04:01.044Z,9.75
2019-03-28T11:06:30.605Z,10.45
2019-03-28T11:09:00.703Z,12.45
2019-03-28T11:11:29.736Z,9.85
2019-03-28T11:13:59.050Z,9.83
2019-03-28T11:16:29.393Z,12.58
2019-03-28T11:19:00.161Z,11.08
2019-03-28T11:21:29.495Z,9.93
2019-03-28T11:23:58.644Z,10.80
2019-03-28T11:26:27.847Z,10.05
2019-03-28T11:29:00.734Z,11.57
2019-03-28T11:31:28.271Z,12.25
2019-03-28T11:33:57.600Z,12.20
2019-03-28T11:36:27.708Z,12.20
2019-03-28T11:38:57.020Z,10.40
2019-03-28T11:41:26.207Z,9.65
2019-03-28T11:43:55.498Z,7.70
2019-03-28T11:46:25.065Z,7.00
2019-03-28T11:48:54.328Z,6.50
2019-03-28T11:51:23.679Z,6.12
2019-03-28T11:53:52.919Z,6.75
2019-03-28T11:56:22.076Z,5.92
2019-03-28T11:58:51.151Z,7.85
2019-03-28T12:01:20.396Z,8.65
2019-03-28T12:03:49.769Z,9.10
2019-03-28T12:06:19.271Z,8.85
2019-03-28T12:08:48.784Z,10.43
2019-03-28T12:11:18.129Z,9.70
2019-03-28T12:13:47.219Z,8.43
2019-03-28T12:16:17.003Z,9.88
2019-03-28T12:18:46.530Z,9.38
2019-03-28T12:21:15.511Z,8.93
2019-03-28T12:23:44.808Z,8.28
2019-03-28T12:26:14.167Z,9.78
2019-03-28T12:28:42.929Z,8.48
2019-03-28T12:31:12.196Z,8.95
2019-03-28T12:33:41.388Z,13.32
2019-03-28T12:36:11.434Z,13.78
2019-03-28T12:38:41.419Z,13.22
2019-03-28T12:41:10.761Z,7.20
2019-03-28T12:43:40.007Z,7.87
2019-03-28T12:46:09.302Z,11.38
2019-03-28T12:48:38.535Z,10.58
2019-03-28T12:51:07.807Z,12.10
2019-03-28T12:53:36.940Z,16.23
2019-03-28T12:56:06.328Z,12.45
2019-03-28T12:58:35.617Z,12.35
2019-03-28T13:01:05.703Z,14.68
2019-03-28T13:03:45.278Z,12.55
2019-03-28T13:06:06.319Z,12.50
2019-03-28T13:08:35.591Z,13.55
2019-03-28T13:11:04.980Z,10.48
2019-03-28T13:13:34.854Z,12.37
2019-03-28T13:16:03.958Z,13.65
2019-03-28T13:18:35.893Z,14.18
2019-03-28T13:21:13.334Z,12.40
2019-03-28T13:23:35.990Z,12.93
2019-03-28T13:26:05.188Z,15.35
2019-03-28T13:28:34.311Z,11.85
2019-03-28T13:31:03.700Z,13.40
2019-03-28T13:33:32.756Z,19.10
2019-03-28T13:36:02.226Z,13.85
2019-03-28T13:38:31.542Z,19.10
2019-03-28T13:41:00.676Z,19.10
2019-03-28T13:43:30.743Z,15.85
2019-03-28T13:46:00.429Z,15.40
2019-03-28T13:48:29.763Z,17.95
2019-03-28T13:50:59.025Z,16.00
2019-03-28T13:53:38.738Z,13.25
2019-03-28T13:55:59.163Z,13.83
2019-03-28T13:58:28.571Z,17.70
2019-03-28T14:00:57.923Z,13.08
2019-03-28T14:03:26.957Z,12.82
2019-03-28T14:05:56.296Z,16.57
2019-03-28T14:08:26.491Z,13.32
2019-03-28T14:10:55.676Z,12.63
2019-03-28T14:13:24.975Z,14.85
2019-03-28T14:15:54.346Z,17.48
2019-03-28T14:18:23.537Z,19.32
2019-03-28T14:20:52.937Z,15.72
2019-03-28T14:23:22.411Z,19.40
2019-03-28T14:25:51.868Z,15.83
2019-03-28T14:28:21.163Z,16.73
2019-03-28T14:30:50.337Z,19.92
2019-03-28T14:33:19.839Z,19.05
2019-03-28T14:35:49.183Z,17.30
2019-03-28T14:38:18.575Z,21.55
2019-03-28T14:40:47.745Z,19.25
2019-03-28T14:43:17.770Z,19.45
2019-03-28T14:45:46.855Z,17.85
2019-03-28T14:48:16.170Z,20.55
2019-03-28T14:50:46.541Z,23.95
2019-03-28T14:53:15.833Z,20.52
2019-03-28T14:55:45.263Z,17.42
2019-03-28T14:58:14.599Z,18.40
2019-03-28T15:00:47.108Z,18.25
2019-03-28T15:03:25.638Z,22.13
2019-03-28T15:05:47.060Z,27.87
2019-03-28T15:08:16.300Z,25.00
2019-03-28T15:10:46.306Z,22.90
2019-03-28T15:13:16.641Z,24.60
2019-03-28T15:15:46.221Z,22.10
2019-03-28T15:18:15.439Z,22.52
2019-03-28T15:20:44.921Z,24.92
2019-03-28T15:23:14.568Z,25.32
2019-03-28T15:25:43.529Z,18.90
2019-03-28T15:28:13.968Z,22.15
2019-03-28T15:30:43.049Z,18.50
2019-03-28T15:33:12.253Z,15.60
2019-03-28T15:35:41.540Z,14.25
2019-03-28T15:38:10.954Z,13.38
2019-03-28T15:40:39.949Z,8.00
2019-03-28T15:43:10.208Z,7.20
2019-03-28T15:45:39.481Z,4.33
2019-03-28T15:48:09.900Z,3.75
2019-03-28T15:50:39.285Z,2.98
2019-03-28T15:53:08.798Z,4.15
2019-03-28T15:55:38.209Z,4.05
2019-03-28T15:58:07.627Z,4.22
2019-03-28T16:00:36.902Z,4.10
2019-03-28T16:03:06.581Z,3.07
2019-03-28T16:05:36.527Z,2.73
2019-03-28T16:08:05.910Z,4.07
2019-03-28T16:10:35.343Z,3.00
2019-03-28T16:13:04.704Z,2.93
2019-03-28T16:15:34.021Z,2.90
2019-03-28T16:18:03.354Z,2.70
2019-03-28T16:20:32.508Z,2.70
2019-03-28T16:23:01.823Z,3.20
2019-03-28T16:25:30.802Z,3.37
2019-03-28T16:27:59.896Z,3.60
2019-03-28T16:30:33.920Z,5.17
2019-03-28T16:33:05.959Z,4.87
2019-03-28T16:35:35.368Z,5.40
2019-03-28T16:38:04.567Z,5.47
2019-03-28T16:40:33.872Z,5.47
2019-03-28T16:43:03.518Z,5.80
2019-03-28T16:45:33.083Z,6.93
2019-03-28T16:48:02.695Z,7.17
2019-03-28T16:50:34.033Z,8.53
2019-03-28T16:53:03.840Z,8.60
2019-03-28T16:55:33.284Z,7.40
2019-03-28T16:58:03.514Z,7.47
2019-03-28T17:00:40.077Z,8.53
2019-03-28T17:03:12.303Z,7.00
2019-03-28T17:05:41.935Z,4.57
2019-03-28T17:08:11.427Z,4.60
2019-03-28T17:10:43.233Z,3.90
2019-03-28T17:13:12.627Z,3.33
2019-03-28T17:15:42.470Z,2.90
2019-03-28T17:18:12.047Z,2.40
2019-03-28T17:20:41.611Z,2.23
2019-03-28T17:23:10.899Z,2.20
2019-03-28T17:25:40.253Z,2.87
2019-03-28T17:28:09.753Z,2.10
2019-03-28T17:30:38.956Z,2.17
2019-03-28T17:33:08.350Z,2.20
2019-03-28T17:35:37.783Z,1.77
2019-03-28T17:38:07.325Z,1.33
2019-03-28T17:40:36.942Z,2.30
2019-03-28T17:43:08.087Z,2.10
2019-03-28T17:45:37.478Z,1.87
2019-03-28T17:48:06.995Z,2.53
2019-03-28T17:50:36.621Z,2.33
2019-03-28T17:53:06.376Z,1.40
2019-03-28T17:55:36.531Z,1.23
2019-03-28T17:58:05.831Z,1.47
2019-03-28T18:00:35.304Z,1.40
2019-03-28T18:03:09.880Z,1.47
2019-03-28T18:05:40.646Z,1.23
2019-03-28T18:08:09.981Z,1.00
2019-03-28T18:10:40.756Z,1.37
2019-03-28T18:13:10.746Z,1.20
2019-03-28T18:15:40.030Z,1.40
2019-03-28T18:18:11.833Z,1.47
2019-03-28T18:20:40.448Z,0.70
2019-03-28T18:23:09.878Z,1.07
2019-03-28T18:25:39.568Z,1.20
2019-03-28T18:28:09.614Z,1.13
2019-03-28T18:30:38.983Z,1.20
2019-03-28T18:33:08.497Z,0.93
2019-03-28T18:35:37.845Z,1.00
2019-03-28T18:38:07.408Z,1.13
2019-03-28T18:40:37.264Z,0.97
2019-03-28T18:43:06.899Z,1.20
2019-03-28T18:45:36.226Z,1.70
2019-03-28T18:48:09.085Z,2.00
2019-03-28T18:50:41.107Z,1.67
2019-03-28T18:53:09.975Z,1.50
2019-03-28T18:55:39.570Z,1.47
2019-03-28T18:58:09.309Z,1.20
2019-03-28T19:00:39.114Z,1.70
2019-03-28T19:03:08.796Z,1.30
2019-03-28T19:05:38.097Z,1.83
2019-03-28T19:08:07.266Z,2.10
2019-03-28T19:10:37.737Z,2.57
2019-03-28T19:13:07.348Z,3.10
2019-03-28T19:15:37.420Z,2.50
2019-03-28T19:18:06.838Z,3.13
2019-03-28T19:20:36.479Z,1.90
2019-03-28T19:23:07.303Z,1.90
2019-03-28T19:25:37.036Z,2.27
2019-03-28T19:28:07.833Z,1.80
2019-03-28T19:30:38.708Z,1.70
2019-03-28T19:33:09.937Z,1.70
2019-03-28T19:35:40.500Z,1.70
2019-03-28T19:38:10.092Z,1.87
2019-03-28T19:40:39.675Z,1.60
2019-03-28T19:43:19.888Z,1.80
2019-03-28T19:45:39.878Z,1.97
2019-03-28T19:48:09.374Z,2.47
2019-03-28T19:50:39.085Z,2.00
2019-03-28T19:53:11.568Z,2.70
2019-03-28T19:55:40.052Z,2.70
2019-03-28T19:58:13.209Z,2.80
2019-03-28T20:00:40.956Z,3.17
2019-03-28T20:03:10.384Z,3.20
2019-03-28T20:05:47.433Z,2.90
2019-03-28T20:08:16.082Z,3.43
2019-03-28T20:10:41.260Z,3.03
2019-03-28T20:13:10.579Z,3.43
2019-03-28T20:15:40.084Z,3.70
2019-03-28T20:18:09.828Z,3.57
2019-03-28T20:20:39.498Z,3.70
2019-03-28T20:23:09.627Z,4.00
2019-03-28T20:25:42.556Z,4.17
2019-03-28T20:28:12.911Z,3.70
2019-03-28T20:30:42.392Z,3.37
2019-03-28T20:33:11.847Z,2.90
2019-03-28T20:35:41.336Z,3.90
2019-03-28T20:38:10.706Z,2.67
2019-03-28T20:40:43.084Z,2.63
2019-03-28T20:43:11.340Z,3.60
2019-03-28T20:45:41.339Z,4.40
2019-03-28T20:48:11.021Z,4.00
2019-03-28T20:50:39.897Z,4.57
2019-03-28T20:53:09.639Z,5.20
2019-03-28T20:55:38.882Z,4.53
2019-03-28T20:58:09.777Z,3.73
2019-03-28T21:00:44.219Z,4.67
2019-03-28T21:03:15.034Z,3.97
2019-03-28T21:05:45.029Z,3.90
2019-03-28T21:08:14.676Z,2.93
2019-03-28T21:10:43.893Z,3.37
2019-03-28T21:13:13.505Z,4.17
2019-03-28T21:15:43.006Z,3.83
2019-03-28T21:18:12.005Z,3.63
2019-03-28T21:20:41.628Z,3.20
2019-03-28T21:23:10.701Z,3.00
2019-03-28T21:25:40.120Z,2.17
2019-03-28T21:28:09.602Z,1.73
2019-03-28T21:30:47.334Z,2.43
2019-03-28T21:33:09.567Z,1.40
2019-03-28T21:35:39.212Z,2.37
2019-03-28T21:38:08.784Z,2.37
2019-03-28T21:40:38.067Z,2.10
2019-03-28T21:43:07.627Z,2.33
2019-03-28T21:45:36.942Z,2.90
2019-03-28T21:48:06.579Z,2.10
2019-03-28T21:50:36.086Z,1.53
2019-03-28T21:53:06.900Z,1.30
2019-03-28T21:55:36.569Z,1.23
2019-03-28T21:58:06.117Z,1.40
2019-03-28T22:00:35.321Z,1.17
2019-03-28T22:03:04.741Z,1.20
2019-03-28T22:05:34.220Z,1.50
2019-03-28T22:08:03.708Z,1.60
2019-03-28T22:10:33.421Z,2.00
2019-03-28T22:13:03.075Z,1.80
2019-03-28T22:15:32.662Z,1.50
2019-03-28T22:18:01.938Z,1.40
2019-03-28T22:20:31.549Z,1.30
2019-03-28T22:23:00.937Z,1.20
2019-03-28T22:25:30.575Z,1.47
2019-03-28T22:27:59.852Z,1.30
2019-03-28T22:30:29.512Z,1.40
2019-03-28T22:32:58.680Z,0.97
2019-03-28T22:35:28.129Z,0.70
2019-03-28T22:37:57.493Z,1.23
2019-03-28T22:40:26.643Z,1.00
2019-03-28T22:42:56.052Z,1.37
2019-03-28T22:45:25.351Z,1.67
2019-03-28T22:47:54.715Z,1.73
2019-03-28T22:50:24.269Z,0.90
2019-03-28T22:52:53.472Z,0.90
2019-03-28T22:55:23.480Z,1.20
2019-03-28T22:57:54.180Z,1.07
2019-03-28T23:00:25.038Z,1.07
2019-03-28T23:02:54.932Z,1.00
2019-03-28T23:05:24.261Z,0.80
2019-03-28T23:07:53.574Z,0.90
2019-03-28T23:10:25.309Z,1.10
2019-03-28T23:12:54.539Z,1.03
2019-03-28T23:15:24.551Z,1.37
2019-03-28T23:17:54.028Z,1.07
2019-03-28T23:20:24.946Z,1.00
2019-03-28T23:22:54.662Z,1.10
2019-03-28T23:25:24.449Z,0.83
2019-03-28T23:27:55.200Z,1.13
2019-03-28T23:30:24.836Z,0.97
2019-03-28T23:32:55.064Z,1.10
2019-03-28T23:35:25.177Z,1.07
2019-03-28T23:37:56.243Z,1.10
2019-03-28T23:40:26.614Z,1.20
2019-03-28T23:42:57.152Z,0.83
2019-03-28T23:45:26.816Z,0.80
2019-03-28T23:47:56.752Z,0.80
2019-03-28T23:50:26.305Z,1.00
2019-03-28T23:52:55.955Z,1.00
2019-03-28T23:55:25.842Z,0.80
2019-03-28T23:57:55.501Z,0.80
